createdAt,value
2019-05-29T00:00:48.113Z,100379.37
2019-05-29T00:03:18.646Z,100377.63
2019-05-29T00:05:47.781Z,100377.63
2019-05-29T00:08:16.942Z,100383.80
2019-05-29T00:10:46.072Z,100384.66
2019-05-29T00:13:15.195Z,100387.77
2019-05-29T00:15:44.309Z,100388.22
2019-05-29T00:18:14.592Z,100389.53
2019-05-29T00:20:43.764Z,100395.34
2019-05-29T00:23:12.930Z,100398.92
2019-05-29T00:25:42.084Z,100403.81
2019-05-29T00:28:11.201Z,100405.63
2019-05-29T00:30:40.325Z,100405.22
2019-05-29T00:33:10.115Z,100408.77
2019-05-29T00:35:39.294Z,100407.47
2019-05-29T00:38:08.525Z,100411.52
2019-05-29T00:40:37.620Z,100416.83
2019-05-29T00:43:07.373Z,100416.85
2019-05-29T00:45:36.592Z,100423.02
2019-05-29T00:48:05.827Z,100423.47
2019-05-29T00:50:35.107Z,100432.28
2019-05-29T00:53:04.288Z,100441.09
2019-05-29T00:55:33.406Z,100440.71
2019-05-29T00:58:02.549Z,100446.89
2019-05-29T01:00:31.664Z,100448.23
2019-05-29T01:03:00.774Z,100305.13
2019-05-29T01:05:29.922Z,100453.57
2019-05-29T01:07:59.190Z,100459.74
2019-05-29T01:10:28.311Z,100460.20
2019-05-29T01:12:57.462Z,100471.65
2019-05-29T01:15:26.608Z,100469.48
2019-05-29T01:17:55.746Z,100473.90
2019-05-29T01:20:24.891Z,100478.74
2019-05-29T01:22:54.042Z,100481.39
2019-05-29T01:25:23.188Z,100482.71
2019-05-29T01:27:52.308Z,100490.63
2019-05-29T01:30:21.466Z,100495.91
2019-05-29T01:32:50.602Z,100496.80
2019-05-29T01:35:20.050Z,100500.75
2019-05-29T01:37:49.321Z,100500.31
2019-05-29T01:40:22.123Z,100507.38
2019-05-29T01:42:50.184Z,100507.82
2019-05-29T01:45:19.548Z,100509.14
2019-05-29T01:47:49.728Z,100510.45
2019-05-29T01:50:19.647Z,100516.59
2019-05-29T01:52:48.750Z,100510.90
2019-05-29T01:55:18.112Z,100503.86
2019-05-29T01:57:47.311Z,100517.94
2019-05-29T02:00:36.928Z,100521.88
2019-05-29T02:03:06.060Z,100520.12
2019-05-29T02:05:35.232Z,100529.80
2019-05-29T02:08:04.337Z,100526.72
2019-05-29T02:10:33.483Z,100526.72
2019-05-29T02:13:02.639Z,100526.72
2019-05-29T02:15:33.944Z,100529.77
2019-05-29T02:18:02.629Z,100525.37
2019-05-29T02:20:31.731Z,100533.72
2019-05-29T02:23:00.861Z,100532.84
2019-05-29T02:25:29.970Z,100536.78
2019-05-29T02:27:59.101Z,100366.98
2019-05-29T02:30:30.629Z,100543.34
2019-05-29T02:32:59.080Z,100545.97
2019-05-29T02:35:29.626Z,100550.80
2019-05-29T02:37:58.902Z,100553.01
2019-05-29T02:40:29.883Z,100556.08
2019-05-29T02:42:58.869Z,100556.95
2019-05-29T02:45:50.290Z,100557.42
2019-05-29T02:48:00.003Z,100564.42
2019-05-29T02:50:31.115Z,100567.04
2019-05-29T02:52:59.970Z,100566.13
2019-05-29T02:55:30.788Z,100400.63
2019-05-29T02:57:59.935Z,100571.81
2019-05-29T03:00:54.994Z,100576.62
2019-05-29T03:03:26.773Z,100583.61
2019-05-29T03:05:56.961Z,100592.36
2019-05-29T03:08:27.078Z,100593.66
2019-05-29T03:10:56.925Z,100592.27
2019-05-29T03:13:27.621Z,100594.45
2019-05-29T03:16:09.513Z,100597.92
2019-05-29T03:18:28.244Z,100607.55
2019-05-29T03:20:57.746Z,100605.32
2019-05-29T03:23:28.835Z,100606.16
2019-05-29T03:25:57.701Z,100610.55
2019-05-29T03:28:27.610Z,100608.27
2019-05-29T03:30:56.846Z,100607.38
2019-05-29T03:33:28.489Z,100618.32
2019-05-29T03:35:56.884Z,100618.27
2019-05-29T03:38:26.186Z,100628.34
2019-05-29T03:40:55.351Z,100633.58
2019-05-29T03:43:26.068Z,100633.99
2019-05-29T03:45:55.296Z,100634.41
2019-05-29T03:48:25.981Z,100645.36
2019-05-29T03:50:58.437Z,100643.59
2019-05-29T03:53:29.059Z,100644.00
2019-05-29T03:55:58.447Z,100646.19
2019-05-29T03:58:28.873Z,100650.55
2019-05-29T04:00:58.592Z,100656.28
2019-05-29T04:03:28.955Z,100659.76
2019-05-29T04:05:58.370Z,100661.52
2019-05-29T04:08:29.284Z,100661.94
2019-05-29T04:10:58.997Z,100667.20
2019-05-29T04:13:29.606Z,100672.91
2019-05-29T04:16:01.149Z,100672.03
2019-05-29T04:18:31.816Z,100682.14
2019-05-29T04:21:02.682Z,100682.98
2019-05-29T04:23:36.128Z,100679.03
2019-05-29T04:26:05.455Z,100686.52
2019-05-29T04:28:35.305Z,100686.94
2019-05-29T04:31:05.462Z,100688.70
2019-05-29T04:33:35.307Z,100691.78
2019-05-29T04:36:05.437Z,100699.67
2019-05-29T04:38:36.135Z,100709.33
2019-05-29T04:41:05.412Z,100718.54
2019-05-29T04:43:35.452Z,100714.16
2019-05-29T04:46:05.391Z,100722.52
2019-05-29T04:48:36.210Z,100720.81
2019-05-29T04:51:05.381Z,100717.78
2019-05-29T04:53:35.522Z,100732.73
2019-05-29T04:56:04.791Z,100735.37
2019-05-29T04:58:34.850Z,100736.70
2019-05-29T05:01:04.038Z,100738.44
2019-05-29T05:03:33.326Z,100741.95
2019-05-29T05:06:02.426Z,100745.91
2019-05-29T05:08:31.543Z,100752.05
2019-05-29T05:11:00.674Z,100760.84
2019-05-29T05:13:29.874Z,100756.09
2019-05-29T05:16:19.465Z,100755.31
2019-05-29T05:18:48.603Z,100754.48
2019-05-29T05:21:17.738Z,100759.37
2019-05-29T05:23:46.911Z,100759.45
2019-05-29T05:26:16.068Z,100762.14
2019-05-29T05:28:46.430Z,100767.89
2019-05-29T05:31:15.913Z,100764.88
2019-05-29T05:33:45.033Z,100770.64
2019-05-29T05:36:14.184Z,100779.47
2019-05-29T05:38:43.292Z,100783.00
2019-05-29T05:41:12.439Z,100782.15
2019-05-29T05:43:41.660Z,100780.00
2019-05-29T05:46:10.801Z,100781.78
2019-05-29T05:48:39.935Z,100784.50
2019-05-29T05:51:09.025Z,100786.29
2019-05-29T05:53:39.437Z,100784.10
2019-05-29T05:56:08.595Z,100790.73
2019-05-29T05:58:37.876Z,100794.73
2019-05-29T06:01:07.005Z,100800.03
2019-05-29T06:03:36.159Z,100800.53
2019-05-29T06:06:05.398Z,100803.68
2019-05-29T06:08:34.521Z,100800.17
2019-05-29T06:11:03.730Z,100801.98
2019-05-29T06:13:32.879Z,100808.62
2019-05-29T06:16:02.000Z,100808.20
2019-05-29T06:18:32.285Z,100814.84
2019-05-29T06:21:01.536Z,100817.06
2019-05-29T06:23:30.664Z,100811.81
2019-05-29T06:26:00.255Z,100807.02
2019-05-29T06:28:29.483Z,100813.20
2019-05-29T06:30:58.640Z,100810.58
2019-05-29T06:33:27.896Z,100814.56
2019-05-29T06:35:57.045Z,100819.43
2019-05-29T06:38:26.202Z,100818.98
2019-05-29T06:40:55.307Z,100819.00
2019-05-29T06:43:25.769Z,100821.22
2019-05-29T06:45:55.359Z,100828.72
2019-05-29T06:48:42.565Z,100829.18
2019-05-29T06:50:59.823Z,100826.97
2019-05-29T06:53:28.996Z,100824.34
2019-05-29T06:55:59.389Z,100826.53
2019-05-29T06:58:29.423Z,100829.59
2019-05-29T07:00:58.599Z,100828.29
2019-05-29T07:03:27.736Z,100829.61
2019-05-29T07:05:56.886Z,100828.75
2019-05-29T07:08:38.204Z,100832.25
2019-05-29T07:10:56.857Z,100837.12
2019-05-29T07:13:25.986Z,100839.30
2019-05-29T07:15:55.094Z,100843.27
2019-05-29T07:18:24.257Z,100842.84
2019-05-29T07:20:53.423Z,100845.45
2019-05-29T07:23:22.551Z,100850.27
2019-05-29T07:25:51.690Z,100858.20
2019-05-29T07:28:20.850Z,100866.14
2019-05-29T07:31:00.508Z,100863.03
2019-05-29T07:33:20.855Z,100871.81
2019-05-29T07:35:49.974Z,100873.58
2019-05-29T07:38:19.163Z,100876.66
2019-05-29T07:40:50.079Z,100881.01
2019-05-29T07:43:19.225Z,100884.07
2019-05-29T07:45:48.371Z,100884.89
2019-05-29T07:48:18.028Z,100882.66
2019-05-29T07:50:48.124Z,100886.53
2019-05-29T07:53:17.503Z,100886.41
2019-05-29T07:55:46.803Z,100881.83
2019-05-29T07:58:15.871Z,100886.16
2019-05-29T08:01:06.836Z,100890.87
2019-05-29T08:03:16.037Z,100890.23
2019-05-29T08:05:49.194Z,100901.52
2019-05-29T08:08:16.018Z,100900.85
2019-05-29T08:10:45.545Z,100893.51
2019-05-29T08:13:14.801Z,100895.05
2019-05-29T08:15:57.607Z,100896.05
2019-05-29T08:18:14.973Z,100896.69
2019-05-29T08:20:44.052Z,100895.87
2019-05-29T08:23:13.180Z,100892.75
2019-05-29T08:25:43.457Z,100893.41
2019-05-29T08:28:12.734Z,100894.17
2019-05-29T08:30:47.688Z,100899.02
2019-05-29T08:33:12.823Z,100903.45
2019-05-29T08:35:43.059Z,100906.98
2019-05-29T08:38:12.335Z,100910.84
2019-05-29T08:40:41.488Z,100910.75
2019-05-29T08:43:10.664Z,100904.98
2019-05-29T08:45:39.846Z,100903.04
2019-05-29T08:48:08.980Z,100898.28
2019-05-29T08:50:38.178Z,100899.73
2019-05-29T08:53:07.338Z,100894.33
2019-05-29T08:55:36.574Z,100898.19
2019-05-29T08:58:05.694Z,100899.91
2019-05-29T09:00:34.928Z,100898.25
2019-05-29T09:03:04.197Z,100902.45
2019-05-29T09:05:33.384Z,100905.59
2019-05-29T09:08:02.581Z,100909.10
2019-05-29T09:10:31.747Z,100910.76
2019-05-29T09:13:04.843Z,100913.69
2019-05-29T09:15:31.761Z,100912.90
2019-05-29T09:18:00.902Z,100911.29
2019-05-29T09:20:57.378Z,100912.11
2019-05-29T09:23:00.983Z,100911.25
2019-05-29T09:25:30.177Z,100911.53
2019-05-29T09:27:59.431Z,100912.64
2019-05-29T09:30:28.601Z,100918.41
2019-05-29T09:32:57.820Z,100923.19
2019-05-29T09:35:27.078Z,100926.27
2019-05-29T09:37:56.295Z,100923.16
2019-05-29T09:40:25.535Z,100924.09
2019-05-29T09:42:54.841Z,100923.12
2019-05-29T09:45:24.038Z,100928.01
2019-05-29T09:47:53.310Z,100881.36
2019-05-29T09:50:23.925Z,100930.86
2019-05-29T09:52:55.340Z,100938.98
2019-05-29T09:55:24.389Z,100943.84
2019-05-29T09:57:54.180Z,100945.77
2019-05-29T10:00:26.382Z,100944.92
2019-05-29T10:02:55.700Z,100949.91
2019-05-29T10:05:24.852Z,100951.30
2019-05-29T10:07:55.079Z,100944.63
2019-05-29T10:10:25.575Z,100947.53
2019-05-29T10:12:55.405Z,100952.50
2019-05-29T10:15:25.809Z,100945.37
2019-05-29T10:17:55.854Z,100940.53
2019-05-29T10:20:26.985Z,100944.88
2019-05-29T10:22:57.159Z,100943.22
2019-05-29T10:25:26.368Z,100936.48
2019-05-29T10:27:55.584Z,100943.02
2019-05-29T10:30:25.117Z,100938.45
2019-05-29T10:32:54.408Z,100941.45
2019-05-29T10:35:23.669Z,100944.27
2019-05-29T10:37:53.127Z,100938.92
2019-05-29T10:40:22.712Z,100941.14
2019-05-29T10:42:53.406Z,100940.89
2019-05-29T10:45:22.768Z,100943.29
2019-05-29T10:47:52.482Z,100947.48
2019-05-29T10:50:23.337Z,100942.25
2019-05-29T10:52:52.584Z,100950.47
2019-05-29T10:55:23.736Z,100946.52
2019-05-29T10:57:53.354Z,100941.84
2019-05-29T11:00:24.206Z,100944.53
2019-05-29T11:02:55.370Z,100945.63
2019-05-29T11:05:24.378Z,100949.97
2019-05-29T11:07:54.008Z,100952.30
2019-05-29T11:10:23.515Z,100946.66
2019-05-29T11:12:52.779Z,100938.73
2019-05-29T11:15:22.534Z,100946.03
2019-05-29T11:17:52.844Z,100946.80
2019-05-29T11:20:23.374Z,100946.21
2019-05-29T11:22:53.578Z,100941.95
2019-05-29T11:25:27.415Z,100945.77
2019-05-29T11:27:54.833Z,100952.63
2019-05-29T11:30:24.467Z,100951.97
2019-05-29T11:32:55.611Z,100950.96
2019-05-29T11:35:24.708Z,100945.53
2019-05-29T11:37:54.970Z,100945.59
2019-05-29T11:40:24.150Z,100943.72
2019-05-29T11:42:54.693Z,100942.88
2019-05-29T11:45:24.027Z,100939.50
2019-05-29T11:47:53.938Z,100940.84
2019-05-29T11:50:24.108Z,100938.39
2019-05-29T11:52:54.407Z,100941.12
2019-05-29T11:55:42.822Z,100945.09
2019-05-29T11:58:29.777Z,100943.34
2019-05-29T12:00:43.129Z,100943.29
2019-05-29T12:03:12.391Z,100943.09
2019-05-29T12:05:41.556Z,100949.20
2019-05-29T12:08:10.913Z,100943.22
2019-05-29T12:10:40.053Z,100944.30
2019-05-29T12:13:09.281Z,100942.69
2019-05-29T12:15:38.476Z,100938.16
2019-05-29T12:18:22.723Z,100941.53
2019-05-29T12:20:38.688Z,100937.22
2019-05-29T12:23:22.915Z,100932.59
2019-05-29T12:25:38.861Z,100933.30
2019-05-29T12:28:08.165Z,100930.99
2019-05-29T12:30:37.620Z,100941.27
2019-05-29T12:33:06.932Z,100935.95
2019-05-29T12:35:36.098Z,100935.99
2019-05-29T12:38:05.298Z,100935.36
2019-05-29T12:40:34.472Z,100931.14
2019-05-29T12:43:03.858Z,100928.55
2019-05-29T12:45:33.128Z,100930.12
2019-05-29T12:48:06.569Z,100924.09
2019-05-29T12:50:34.636Z,100924.38
2019-05-29T12:53:04.289Z,100927.89
2019-05-29T12:55:33.724Z,100920.92
2019-05-29T12:58:04.322Z,100921.17
2019-05-29T13:00:33.754Z,100924.14
2019-05-29T13:03:03.236Z,100924.55
2019-05-29T13:05:33.927Z,100923.37
2019-05-29T13:08:03.621Z,100928.34
2019-05-29T13:10:34.225Z,100922.90
2019-05-29T13:13:08.504Z,100918.67
2019-05-29T13:15:34.241Z,100926.86
2019-05-29T13:18:09.080Z,100920.91
2019-05-29T13:20:34.288Z,100921.07
2019-05-29T13:23:06.742Z,100924.61
2019-05-29T13:25:34.535Z,100925.63
2019-05-29T13:28:04.770Z,100925.53
2019-05-29T13:30:34.644Z,100922.23
2019-05-29T13:33:07.444Z,100915.03
2019-05-29T13:35:34.765Z,100918.02
2019-05-29T13:38:05.128Z,100918.99
2019-05-29T13:40:34.391Z,100918.05
2019-05-29T13:43:11.482Z,100919.23
2019-05-29T13:45:34.521Z,100917.08
2019-05-29T13:48:05.241Z,100911.70
2019-05-29T13:50:34.706Z,100912.38
2019-05-29T13:53:04.183Z,100912.52
2019-05-29T13:55:34.611Z,100915.88
2019-05-29T13:58:03.890Z,100910.21
2019-05-29T14:00:34.942Z,100911.44
2019-05-29T14:03:04.890Z,100914.41
2019-05-29T14:05:35.129Z,100915.23
2019-05-29T14:08:04.820Z,100912.09
2019-05-29T14:10:34.426Z,100906.48
2019-05-29T14:13:03.617Z,100909.05
2019-05-29T14:15:32.836Z,100902.28
2019-05-29T14:18:02.870Z,100906.58
2019-05-29T14:20:32.200Z,100911.69
2019-05-29T14:23:01.489Z,100909.47
2019-05-29T14:25:30.718Z,100907.71
2019-05-29T14:28:00.772Z,100909.35
2019-05-29T14:30:30.089Z,100906.87
2019-05-29T14:32:59.332Z,100912.13
2019-05-29T14:35:28.549Z,100901.94
2019-05-29T14:37:57.751Z,100907.07
2019-05-29T14:40:26.951Z,100909.54
2019-05-29T14:42:56.140Z,100918.37
2019-05-29T14:45:25.513Z,100900.86
2019-05-29T14:47:57.626Z,100903.55
2019-05-29T14:50:26.808Z,100905.88
2019-05-29T14:52:56.001Z,100908.61
2019-05-29T14:55:25.177Z,100907.66
2019-05-29T14:57:54.366Z,100913.39
2019-05-29T15:00:25.666Z,100908.84
2019-05-29T15:02:54.765Z,100910.50
2019-05-29T15:05:24.569Z,100908.59
2019-05-29T15:07:53.865Z,100914.96
2019-05-29T15:10:27.573Z,100911.05
2019-05-29T15:12:57.789Z,100915.66
2019-05-29T15:15:25.256Z,100919.61
2019-05-29T15:17:54.504Z,100921.52
2019-05-29T15:20:23.724Z,100917.45
2019-05-29T15:22:52.993Z,100909.26
2019-05-29T15:25:24.398Z,100911.47
2019-05-29T15:27:53.399Z,100913.18
2019-05-29T15:30:23.785Z,100917.30
2019-05-29T15:32:53.254Z,100923.00
2019-05-29T15:35:22.470Z,100763.20
2019-05-29T15:37:51.665Z,100915.61
2019-05-29T15:40:20.914Z,100915.48
2019-05-29T15:42:50.112Z,100919.80
2019-05-29T15:45:20.967Z,100724.05
2019-05-29T15:47:50.336Z,100916.34
2019-05-29T15:50:19.694Z,100924.91
2019-05-29T15:52:48.884Z,100924.42
2019-05-29T15:55:28.405Z,100914.13
2019-05-29T15:57:49.142Z,100918.19
2019-05-29T16:00:18.548Z,100921.66
2019-05-29T16:02:49.409Z,100926.61
2019-05-29T16:05:21.686Z,100917.45
2019-05-29T16:07:50.239Z,100920.17
2019-05-29T16:10:20.983Z,100920.11
2019-05-29T16:12:50.321Z,100921.83
2019-05-29T16:15:22.878Z,100710.41
2019-05-29T16:17:52.501Z,100905.06
2019-05-29T16:20:22.826Z,100902.77
2019-05-29T16:22:52.166Z,100909.09
2019-05-29T16:25:37.880Z,100911.14
2019-05-29T16:27:52.371Z,100906.09
2019-05-29T16:30:21.958Z,100902.91
2019-05-29T16:32:51.361Z,100899.08
2019-05-29T16:35:21.896Z,100908.73
2019-05-29T16:37:51.062Z,100903.08
2019-05-29T16:40:21.856Z,100908.59
2019-05-29T16:42:51.152Z,100908.38
2019-05-29T16:45:20.573Z,100746.28
2019-05-29T16:47:49.804Z,100914.51
2019-05-29T16:50:21.240Z,100911.95
2019-05-29T16:52:50.451Z,100915.81
2019-05-29T16:55:22.967Z,100916.69
2019-05-29T16:57:50.590Z,100925.68
2019-05-29T17:00:21.707Z,100927.90
2019-05-29T17:02:51.143Z,100927.17
2019-05-29T17:05:22.258Z,100940.80
2019-05-29T17:07:51.561Z,100935.42
2019-05-29T17:10:25.544Z,100933.47
2019-05-29T17:12:54.861Z,100927.06
2019-05-29T17:15:24.740Z,100930.62
2019-05-29T17:17:54.094Z,100548.16
2019-05-29T17:20:39.002Z,100930.85
2019-05-29T17:23:07.259Z,100926.88
2019-05-29T17:25:36.412Z,100925.02
2019-05-29T17:28:05.783Z,100925.73
2019-05-29T17:30:35.315Z,100927.07
2019-05-29T17:33:04.613Z,100928.06
2019-05-29T17:35:33.814Z,100925.23
2019-05-29T17:38:03.061Z,100929.78
2019-05-29T17:40:32.228Z,100925.61
2019-05-29T17:43:02.619Z,100931.03
2019-05-29T17:45:31.806Z,100925.98
2019-05-29T17:48:00.997Z,100924.32
2019-05-29T17:50:30.207Z,100926.44
2019-05-29T17:52:59.378Z,100927.53
2019-05-29T17:55:28.609Z,100925.23
2019-05-29T17:57:57.841Z,100916.67
2019-05-29T18:00:27.145Z,100914.99
2019-05-29T18:02:56.360Z,100920.32
2019-05-29T18:05:26.650Z,100915.13
2019-05-29T18:07:55.962Z,100914.25
2019-05-29T18:10:25.746Z,100911.81
2019-05-29T18:12:55.011Z,100912.53
2019-05-29T18:15:25.656Z,100914.48
2019-05-29T18:17:55.010Z,100913.28
2019-05-29T18:20:25.702Z,100913.97
2019-05-29T18:22:55.057Z,100916.45
2019-05-29T18:25:24.299Z,100910.90
2019-05-29T18:27:53.474Z,100921.82
2019-05-29T18:30:22.814Z,100919.78
2019-05-29T18:32:52.014Z,100922.59
2019-05-29T18:35:21.425Z,100928.13
2019-05-29T18:37:50.704Z,100924.94
2019-05-29T18:40:20.684Z,100924.30
2019-05-29T18:42:49.848Z,100928.48
2019-05-29T18:45:21.548Z,100932.58
2019-05-29T18:47:50.241Z,100925.14
2019-05-29T18:50:21.504Z,100929.23
2019-05-29T18:52:51.078Z,100933.85
2019-05-29T18:55:20.751Z,100932.72
2019-05-29T18:57:50.075Z,100934.59
2019-05-29T19:00:21.146Z,100931.23
2019-05-29T19:02:50.452Z,100935.84
2019-05-29T19:05:19.741Z,100939.63
2019-05-29T19:07:48.936Z,100940.84
2019-05-29T19:10:18.251Z,100942.50
2019-05-29T19:12:47.549Z,100940.22
2019-05-29T19:15:17.116Z,100952.65
2019-05-29T19:17:46.324Z,100958.67
2019-05-29T19:20:15.830Z,100958.39
2019-05-29T19:22:45.152Z,100963.43
2019-05-29T19:25:14.526Z,100966.29
2019-05-29T19:27:43.771Z,100977.13
2019-05-29T19:30:13.338Z,100972.91
2019-05-29T19:32:42.530Z,100975.84
2019-05-29T19:35:12.038Z,100980.09
2019-05-29T19:37:41.276Z,100982.00
2019-05-29T19:40:10.599Z,100979.98
2019-05-29T19:42:39.782Z,100984.59
2019-05-29T19:45:10.310Z,100984.33
2019-05-29T19:47:39.491Z,100985.81
2019-05-29T19:50:11.354Z,100994.39
2019-05-29T19:52:39.936Z,100996.75
2019-05-29T19:55:09.917Z,100998.23
2019-05-29T19:57:54.810Z,101005.97
2019-05-29T20:00:10.627Z,101003.52
2019-05-29T20:02:40.015Z,101009.83
2019-05-29T20:05:10.053Z,101015.31
2019-05-29T20:07:39.240Z,101013.19
2019-05-29T20:10:09.476Z,101015.91
2019-05-29T20:12:38.700Z,101012.87
2019-05-29T20:15:08.188Z,101015.63
2019-05-29T20:17:38.488Z,101024.53
2019-05-29T20:20:08.438Z,101022.35
2019-05-29T20:22:38.971Z,101015.88
2019-05-29T20:25:13.382Z,101019.11
2019-05-29T20:27:41.004Z,101015.72
2019-05-29T20:30:16.483Z,101014.91
2019-05-29T20:32:45.689Z,101018.09
2019-05-29T20:35:15.242Z,101013.77
2019-05-29T20:37:44.480Z,101015.19
2019-05-29T20:40:14.520Z,101014.39
2019-05-29T20:42:43.692Z,101018.45
2019-05-29T20:45:13.291Z,101018.93
2019-05-29T20:47:42.547Z,101024.30
2019-05-29T20:50:12.342Z,101023.92
2019-05-29T20:52:41.535Z,101024.41
2019-05-29T20:55:11.273Z,101020.53
2019-05-29T20:57:40.500Z,101021.44
2019-05-29T21:00:10.266Z,101028.11
2019-05-29T21:02:40.455Z,101026.35
2019-05-29T21:05:09.993Z,101028.59
2019-05-29T21:07:39.237Z,101040.55
2019-05-29T21:10:08.549Z,101040.61
2019-05-29T21:12:41.954Z,101037.53
2019-05-29T21:15:09.333Z,101039.31
2019-05-29T21:17:39.858Z,100980.75
2019-05-29T21:20:09.687Z,101042.45
2019-05-29T21:22:38.907Z,101047.34
2019-05-29T21:25:12.661Z,101050.48
2019-05-29T21:27:43.898Z,101046.52
2019-05-29T21:30:12.056Z,101045.22
2019-05-29T21:32:41.940Z,101054.10
2019-05-29T21:35:11.239Z,101053.73
2019-05-29T21:37:40.459Z,101055.97
2019-05-29T21:40:09.856Z,101049.36
2019-05-29T21:42:39.053Z,101053.80
2019-05-29T21:45:08.451Z,101052.06
2019-05-29T21:47:38.881Z,101049.47
2019-05-29T21:50:08.514Z,101057.00
2019-05-29T21:52:37.719Z,101060.10
2019-05-29T21:55:07.569Z,101057.45
2019-05-29T21:57:37.736Z,101054.37
2019-05-29T22:00:10.860Z,101053.98
2019-05-29T22:02:40.313Z,101052.66
2019-05-29T22:05:09.995Z,101050.02
2019-05-29T22:07:40.582Z,101049.62
2019-05-29T22:10:10.843Z,101047.41
2019-05-29T22:12:40.028Z,101044.77
2019-05-29T22:15:09.333Z,101048.30
2019-05-29T22:17:38.610Z,101048.75
2019-05-29T22:20:08.043Z,101051.44
2019-05-29T22:22:37.218Z,101054.08
2019-05-29T22:25:06.742Z,101047.02
2019-05-29T22:27:35.980Z,101042.16
2019-05-29T22:30:06.741Z,101045.70
2019-05-29T22:32:35.946Z,101045.28
2019-05-29T22:35:05.323Z,101047.05
2019-05-29T22:37:34.563Z,101049.25
2019-05-29T22:40:03.794Z,101040.42
2019-05-29T22:42:33.022Z,101043.95
2019-05-29T22:45:02.380Z,101040.89
2019-05-29T22:47:31.690Z,101040.89
2019-05-29T22:50:02.207Z,101041.31
2019-05-29T22:52:31.556Z,101046.63
2019-05-29T22:55:02.228Z,101039.08
2019-05-29T22:57:31.669Z,101041.72
2019-05-29T23:00:02.343Z,101042.14
2019-05-29T23:02:31.738Z,101039.94
2019-05-29T23:05:00.937Z,101033.78
2019-05-29T23:07:30.148Z,101034.23
2019-05-29T23:10:00.590Z,101028.93
2019-05-29T23:12:29.904Z,101021.42
2019-05-29T23:14:59.140Z,101023.17
2019-05-29T23:17:28.339Z,101016.98
2019-05-29T23:19:58.566Z,101015.23
2019-05-29T23:22:27.797Z,101015.66
2019-05-29T23:24:57.058Z,101013.02
2019-05-29T23:27:26.266Z,101015.22
2019-05-29T23:29:56.777Z,101006.39
2019-05-29T23:32:26.010Z,101009.47
2019-05-29T23:34:55.204Z,101011.22
2019-05-29T23:37:24.426Z,101012.54
2019-05-29T23:39:53.664Z,101002.40
2019-05-29T23:42:22.848Z,101001.52
2019-05-29T23:44:52.764Z,101012.10
2019-05-29T23:47:22.941Z,101007.24
2019-05-29T23:49:53.365Z,101005.48
2019-05-29T23:52:22.700Z,101007.71
2019-05-29T23:54:51.898Z,101009.45
2019-05-29T23:57:21.338Z,101009.00
